To NAV CANADA Home Page Login to a new session Search on AWWS site Disclaimer Vers la page française équivalente Tips FAQ What's new on the site To the Forecasts and Observations / NOTAM section To "File a Flight Plan" website Publications and other links Update of the User's profile FIC Telephone Numbers My Weather Data Folder Route Weather Data Regional Weather Data Local Weather Data To the Forecasts and Observations / NOTAM section
Request Generated 11/13/2018 at 18:03:57 UTC . Weather information available at that time is displayed.

METAR/TAF

CHETWYND/BC    

METAR CYCQ 131800Z 25010KT 35SM SCT140 BKN160 BKN190 OVC240 03/M03 A2988 RMK AC3AC3AS1CI1 SLP146=
METAR CYCQ 131700Z 27003KT 230V310 35SM FEW090 SCT140 BKN180 OVC240 03/M04 A2991 RMK AC1AC4AS3CI1 AC TR SLP153=
METAR CYCQ 131600Z 26005KT 35SM FEW035 SCT150 BKN180 BKN240 03/M03 A2993 RMK CU1AC4AS2CI1 CU TR ACSL NE SLP163=

CYCQ - No TAF is issued for this station

Your time UTC time
Weather data provided by Environment Canada and NAV CANADA